sensor_id;sensor_type;location;lat;lon;timestamp;temperature;humidity
78696;SHT31;68030;51.980;5.646;2023-08-20T00:00:15;22.2;69.5
78696;SHT31;68030;51.980;5.646;2023-08-20T00:02:46;22.2;69.4
78696;SHT31;68030;51.980;5.646;2023-08-20T00:05:23;22.2;69.3
78696;SHT31;68030;51.980;5.646;2023-08-20T00:07:52;22.2;69.4
78696;SHT31;68030;51.980;5.646;2023-08-20T00:10:20;22.3;69.2
78696;SHT31;68030;51.980;5.646;2023-08-20T00:12:49;22.3;69.0
78696;SHT31;68030;51.980;5.646;2023-08-20T00:15:17;22.3;68.6
78696;SHT31;68030;51.980;5.646;2023-08-20T00:17:47;22.3;68.5
78696;SHT31;68030;51.980;5.646;2023-08-20T00:20:16;22.3;68.1
78696;SHT31;68030;51.980;5.646;2023-08-20T00:22:46;22.3;67.9
78696;SHT31;68030;51.980;5.646;2023-08-20T00:25:17;22.3;68.0
78696;SHT31;68030;51.980;5.646;2023-08-20T00:27:46;22.3;68.0
78696;SHT31;68030;51.980;5.646;2023-08-20T00:30:15;22.3;67.7
78696;SHT31;68030;51.980;5.646;2023-08-20T00:32:43;22.3;67.5
78696;SHT31;68030;51.980;5.646;2023-08-20T00:35:12;22.2;67.5
78696;SHT31;68030;51.980;5.646;2023-08-20T00:37:41;22.2;67.4
78696;SHT31;68030;51.980;5.646;2023-08-20T00:40:11;22.2;67.4
78696;SHT31;68030;51.980;5.646;2023-08-20T00:42:40;22.2;67.3
78696;SHT31;68030;51.980;5.646;2023-08-20T00:45:12;22.2;67.1
78696;SHT31;68030;51.980;5.646;2023-08-20T00:47:41;22.2;67.1
78696;SHT31;68030;51.980;5.646;2023-08-20T00:50:12;22.1;67.4
78696;SHT31;68030;51.980;5.646;2023-08-20T00:52:41;22.1;67.4
78696;SHT31;68030;51.980;5.646;2023-08-20T00:55:12;22.1;67.7
78696;SHT31;68030;51.980;5.646;2023-08-20T00:57:41;22.1;67.6
78696;SHT31;68030;51.980;5.646;2023-08-20T01:00:11;22.1;67.8
78696;SHT31;68030;51.980;5.646;2023-08-20T01:02:40;22.1;67.7
78696;SHT31;68030;51.980;5.646;2023-08-20T01:05:11;22.2;67.7
78696;SHT31;68030;51.980;5.646;2023-08-20T01:07:46;22.2;67.6
78696;SHT31;68030;51.980;5.646;2023-08-20T01:10:27;22.2;67.6
78696;SHT31;68030;51.980;5.646;2023-08-20T01:12:58;22.2;67.1
78696;SHT31;68030;51.980;5.646;2023-08-20T01:15:30;22.2;67.2
78696;SHT31;68030;51.980;5.646;2023-08-20T01:17:59;22.2;67.0
78696;SHT31;68030;51.980;5.646;2023-08-20T01:20:35;22.2;67.1
78696;SHT31;68030;51.980;5.646;2023-08-20T01:23:57;22.2;67.2
78696;SHT31;68030;51.980;5.646;2023-08-20T01:26:40;22.2;67.4
78696;SHT31;68030;51.980;5.646;2023-08-20T01:29:11;22.1;67.6
78696;SHT31;68030;51.980;5.646;2023-08-20T01:31:41;22.1;67.8
78696;SHT31;68030;51.980;5.646;2023-08-20T01:34:11;22.1;67.7
78696;SHT31;68030;51.980;5.646;2023-08-20T01:36:42;22.1;67.9
78696;SHT31;68030;51.980;5.646;2023-08-20T01:39:11;22.1;68.2
78696;SHT31;68030;51.980;5.646;2023-08-20T01:41:40;22.0;68.2
78696;SHT31;68030;51.980;5.646;2023-08-20T01:44:10;22.0;68.2
78696;SHT31;68030;51.980;5.646;2023-08-20T01:46:39;22.0;68.4
78696;SHT31;68030;51.980;5.646;2023-08-20T01:49:08;22.0;68.5
78696;SHT31;68030;51.980;5.646;2023-08-20T01:51:36;22.0;68.4
78696;SHT31;68030;51.980;5.646;2023-08-20T01:54:06;22.0;68.6
78696;SHT31;68030;51.980;5.646;2023-08-20T01:56:35;22.0;68.7
78696;SHT31;68030;51.980;5.646;2023-08-20T01:59:04;22.0;68.9
78696;SHT31;68030;51.980;5.646;2023-08-20T02:01:32;21.9;68.9
78696;SHT31;68030;51.980;5.646;2023-08-20T02:04:01;21.9;69.0
78696;SHT31;68030;51.980;5.646;2023-08-20T02:06:29;21.9;69.2
78696;SHT31;68030;51.980;5.646;2023-08-20T02:08:58;21.9;69.2
78696;SHT31;68030;51.980;5.646;2023-08-20T02:11:26;21.8;69.1
78696;SHT31;68030;51.980;5.646;2023-08-20T02:13:56;21.8;69.0
78696;SHT31;68030;51.980;5.646;2023-08-20T02:16:24;21.8;69.2
78696;SHT31;68030;51.980;5.646;2023-08-20T02:18:53;21.7;69.1
78696;SHT31;68030;51.980;5.646;2023-08-20T02:21:21;21.7;69.1
78696;SHT31;68030;51.980;5.646;2023-08-20T02:23:50;21.7;69.3
78696;SHT31;68030;51.980;5.646;2023-08-20T02:26:18;21.6;69.4
78696;SHT31;68030;51.980;5.646;2023-08-20T02:28:47;21.6;69.4
78696;SHT31;68030;51.980;5.646;2023-08-20T02:31:16;21.6;69.5
78696;SHT31;68030;51.980;5.646;2023-08-20T02:33:44;21.6;69.5
78696;SHT31;68030;51.980;5.646;2023-08-20T02:36:13;21.5;69.5
78696;SHT31;68030;51.980;5.646;2023-08-20T02:38:42;21.5;69.7
78696;SHT31;68030;51.980;5.646;2023-08-20T02:41:12;21.5;69.7
78696;SHT31;68030;51.980;5.646;2023-08-20T02:43:41;21.4;69.7
78696;SHT31;68030;51.980;5.646;2023-08-20T02:46:09;21.4;69.6
78696;SHT31;68030;51.980;5.646;2023-08-20T02:48:38;21.4;69.5
78696;SHT31;68030;51.980;5.646;2023-08-20T02:51:06;21.3;69.6
78696;SHT31;68030;51.980;5.646;2023-08-20T02:53:35;21.3;69.8
78696;SHT31;68030;51.980;5.646;2023-08-20T02:56:04;21.3;69.8
78696;SHT31;68030;51.980;5.646;2023-08-20T02:58:32;21.2;69.9
78696;SHT31;68030;51.980;5.646;2023-08-20T03:01:01;21.2;69.9
78696;SHT31;68030;51.980;5.646;2023-08-20T03:03:30;21.2;70.0
78696;SHT31;68030;51.980;5.646;2023-08-20T03:05:58;21.1;70.2
78696;SHT31;68030;51.980;5.646;2023-08-20T03:08:27;21.1;70.3
78696;SHT31;68030;51.980;5.646;2023-08-20T03:10:56;21.1;70.5
78696;SHT31;68030;51.980;5.646;2023-08-20T03:13:26;21.0;70.7
78696;SHT31;68030;51.980;5.646;2023-08-20T03:15:55;21.0;70.8
78696;SHT31;68030;51.980;5.646;2023-08-20T03:18:23;21.0;70.9
78696;SHT31;68030;51.980;5.646;2023-08-20T03:20:54;21.0;70.8
78696;SHT31;68030;51.980;5.646;2023-08-20T03:23:23;20.9;70.6
78696;SHT31;68030;51.980;5.646;2023-08-20T03:25:52;20.9;70.8
78696;SHT31;68030;51.980;5.646;2023-08-20T03:28:21;20.9;70.8
78696;SHT31;68030;51.980;5.646;2023-08-20T03:30:51;20.9;71.0
78696;SHT31;68030;51.980;5.646;2023-08-20T03:33:20;20.9;71.2
78696;SHT31;68030;51.980;5.646;2023-08-20T03:35:48;20.9;71.2
78696;SHT31;68030;51.980;5.646;2023-08-20T03:38:17;20.9;71.2
78696;SHT31;68030;51.980;5.646;2023-08-20T03:40:45;20.9;71.2
78696;SHT31;68030;51.980;5.646;2023-08-20T03:43:14;20.9;71.2
78696;SHT31;68030;51.980;5.646;2023-08-20T03:45:42;20.9;70.9
78696;SHT31;68030;51.980;5.646;2023-08-20T03:48:11;20.9;71.2
78696;SHT31;68030;51.980;5.646;2023-08-20T03:50:41;20.9;71.0
78696;SHT31;68030;51.980;5.646;2023-08-20T03:53:09;20.8;71.0
78696;SHT31;68030;51.980;5.646;2023-08-20T03:55:38;20.8;70.5
78696;SHT31;68030;51.980;5.646;2023-08-20T03:58:06;20.8;70.7
78696;SHT31;68030;51.980;5.646;2023-08-20T04:00:36;20.8;71.0
78696;SHT31;68030;51.980;5.646;2023-08-20T04:03:04;20.8;71.1
78696;SHT31;68030;51.980;5.646;2023-08-20T04:05:37;20.8;71.1
78696;SHT31;68030;51.980;5.646;2023-08-20T04:08:07;20.8;70.5
78696;SHT31;68030;51.980;5.646;2023-08-20T04:10:35;20.8;70.5
78696;SHT31;68030;51.980;5.646;2023-08-20T04:13:09;20.8;70.6
78696;SHT31;68030;51.980;5.646;2023-08-20T04:15:37;20.7;70.8
78696;SHT31;68030;51.980;5.646;2023-08-20T04:18:07;20.7;70.8
78696;SHT31;68030;51.980;5.646;2023-08-20T04:20:36;20.7;70.7
78696;SHT31;68030;51.980;5.646;2023-08-20T04:23:05;20.7;70.8
78696;SHT31;68030;51.980;5.646;2023-08-20T04:25:35;20.7;70.7
78696;SHT31;68030;51.980;5.646;2023-08-20T04:28:04;20.6;71.0
78696;SHT31;68030;51.980;5.646;2023-08-20T04:30:34;20.6;71.2
78696;SHT31;68030;51.980;5.646;2023-08-20T04:33:03;20.6;71.0
78696;SHT31;68030;51.980;5.646;2023-08-20T04:35:33;20.6;71.0
78696;SHT31;68030;51.980;5.646;2023-08-20T04:38:02;20.6;70.7
78696;SHT31;68030;51.980;5.646;2023-08-20T04:40:30;20.6;70.6
78696;SHT31;68030;51.980;5.646;2023-08-20T04:42:59;20.6;70.5
78696;SHT31;68030;51.980;5.646;2023-08-20T04:45:28;20.6;70.5
78696;SHT31;68030;51.980;5.646;2023-08-20T04:47:56;20.6;70.7
78696;SHT31;68030;51.980;5.646;2023-08-20T04:50:25;20.6;70.3
78696;SHT31;68030;51.980;5.646;2023-08-20T04:52:53;20.6;70.2
78696;SHT31;68030;51.980;5.646;2023-08-20T04:55:22;20.6;70.5
78696;SHT31;68030;51.980;5.646;2023-08-20T04:57:51;20.6;70.7
78696;SHT31;68030;51.980;5.646;2023-08-20T05:00:21;20.6;70.6
78696;SHT31;68030;51.980;5.646;2023-08-20T05:02:50;20.6;70.5
78696;SHT31;68030;51.980;5.646;2023-08-20T05:05:18;20.6;70.7
78696;SHT31;68030;51.980;5.646;2023-08-20T05:07:49;20.6;70.5
78696;SHT31;68030;51.980;5.646;2023-08-20T05:10:17;20.6;70.6
78696;SHT31;68030;51.980;5.646;2023-08-20T05:12:46;20.6;70.6
78696;SHT31;68030;51.980;5.646;2023-08-20T05:15:15;20.6;70.6
78696;SHT31;68030;51.980;5.646;2023-08-20T05:17:44;20.6;70.7
78696;SHT31;68030;51.980;5.646;2023-08-20T05:20:15;20.7;70.6
78696;SHT31;68030;51.980;5.646;2023-08-20T05:22:43;20.7;70.5
78696;SHT31;68030;51.980;5.646;2023-08-20T05:25:12;20.7;70.4
78696;SHT31;68030;51.980;5.646;2023-08-20T05:27:40;20.8;70.1
78696;SHT31;68030;51.980;5.646;2023-08-20T05:30:10;20.8;70.1
78696;SHT31;68030;51.980;5.646;2023-08-20T05:32:39;20.9;70.0
78696;SHT31;68030;51.980;5.646;2023-08-20T05:35:10;20.9;70.1
78696;SHT31;68030;51.980;5.646;2023-08-20T05:37:39;21.0;70.1
78696;SHT31;68030;51.980;5.646;2023-08-20T05:40:08;21.0;70.2
78696;SHT31;68030;51.980;5.646;2023-08-20T05:42:38;21.1;70.0
78696;SHT31;68030;51.980;5.646;2023-08-20T05:45:07;21.2;69.9
78696;SHT31;68030;51.980;5.646;2023-08-20T05:47:36;21.2;69.8
78696;SHT31;68030;51.980;5.646;2023-08-20T05:50:05;21.3;69.7
78696;SHT31;68030;51.980;5.646;2023-08-20T05:52:34;21.4;69.4
78696;SHT31;68030;51.980;5.646;2023-08-20T05:55:03;21.4;69.3
78696;SHT31;68030;51.980;5.646;2023-08-20T05:57:32;21.5;69.4
78696;SHT31;68030;51.980;5.646;2023-08-20T06:00:04;21.5;69.3
78696;SHT31;68030;51.980;5.646;2023-08-20T06:02:34;21.6;69.3
78696;SHT31;68030;51.980;5.646;2023-08-20T06:05:04;21.7;69.4
78696;SHT31;68030;51.980;5.646;2023-08-20T06:07:33;21.7;68.9
78696;SHT31;68030;51.980;5.646;2023-08-20T06:10:01;21.8;67.5
78696;SHT31;68030;51.980;5.646;2023-08-20T06:12:30;21.9;66.8
78696;SHT31;68030;51.980;5.646;2023-08-20T06:14:59;21.9;66.1
78696;SHT31;68030;51.980;5.646;2023-08-20T06:17:27;22.0;65.5
78696;SHT31;68030;51.980;5.646;2023-08-20T06:19:56;22.1;65.2
78696;SHT31;68030;51.980;5.646;2023-08-20T06:22:27;22.1;64.9
78696;SHT31;68030;51.980;5.646;2023-08-20T06:24:55;22.2;64.7
78696;SHT31;68030;51.980;5.646;2023-08-20T06:27:24;22.3;64.6
78696;SHT31;68030;51.980;5.646;2023-08-20T06:29:53;22.3;64.7
78696;SHT31;68030;51.980;5.646;2023-08-20T06:32:22;22.4;64.8
78696;SHT31;68030;51.980;5.646;2023-08-20T06:34:51;22.5;64.8
78696;SHT31;68030;51.980;5.646;2023-08-20T06:37:20;22.5;64.8
78696;SHT31;68030;51.980;5.646;2023-08-20T06:39:50;22.6;64.4
78696;SHT31;68030;51.980;5.646;2023-08-20T06:42:21;22.6;64.7
78696;SHT31;68030;51.980;5.646;2023-08-20T06:44:49;22.7;63.6
78696;SHT31;68030;51.980;5.646;2023-08-20T06:47:19;22.7;62.9
78696;SHT31;68030;51.980;5.646;2023-08-20T06:49:47;22.8;62.4
78696;SHT31;68030;51.980;5.646;2023-08-20T06:52:16;22.8;62.2
78696;SHT31;68030;51.980;5.646;2023-08-20T06:54:44;22.9;62.3
78696;SHT31;68030;51.980;5.646;2023-08-20T06:57:13;22.9;62.2
78696;SHT31;68030;51.980;5.646;2023-08-20T06:59:41;22.9;62.4
78696;SHT31;68030;51.980;5.646;2023-08-20T07:02:11;23.0;61.8
78696;SHT31;68030;51.980;5.646;2023-08-20T07:04:40;23.0;61.9
78696;SHT31;68030;51.980;5.646;2023-08-20T07:07:08;23.1;61.6
78696;SHT31;68030;51.980;5.646;2023-08-20T07:09:37;23.1;61.7
78696;SHT31;68030;51.980;5.646;2023-08-20T07:12:07;23.2;61.3
78696;SHT31;68030;51.980;5.646;2023-08-20T07:14:35;23.2;61.5
78696;SHT31;68030;51.980;5.646;2023-08-20T07:17:04;23.3;61.4
78696;SHT31;68030;51.980;5.646;2023-08-20T07:19:33;23.4;61.3
78696;SHT31;68030;51.980;5.646;2023-08-20T07:22:01;23.4;61.4
78696;SHT31;68030;51.980;5.646;2023-08-20T07:24:30;23.5;60.7
78696;SHT31;68030;51.980;5.646;2023-08-20T07:27:01;23.5;60.8
78696;SHT31;68030;51.980;5.646;2023-08-20T07:29:35;23.6;60.6
78696;SHT31;68030;51.980;5.646;2023-08-20T07:32:04;23.7;60.6
78696;SHT31;68030;51.980;5.646;2023-08-20T07:34:33;23.7;59.8
78696;SHT31;68030;51.980;5.646;2023-08-20T07:37:03;23.8;59.2
78696;SHT31;68030;51.980;5.646;2023-08-20T07:39:34;23.9;59.4
78696;SHT31;68030;51.980;5.646;2023-08-20T07:42:03;23.9;59.0
78696;SHT31;68030;51.980;5.646;2023-08-20T07:44:32;24.0;59.5
78696;SHT31;68030;51.980;5.646;2023-08-20T07:47:01;24.1;59.5
78696;SHT31;68030;51.980;5.646;2023-08-20T07:49:29;24.1;58.4
78696;SHT31;68030;51.980;5.646;2023-08-20T07:51:58;24.2;58.5
78696;SHT31;68030;51.980;5.646;2023-08-20T07:54:26;24.3;58.5
78696;SHT31;68030;51.980;5.646;2023-08-20T07:56:56;24.4;58.5
78696;SHT31;68030;51.980;5.646;2023-08-20T07:59:24;24.4;58.2
78696;SHT31;68030;51.980;5.646;2023-08-20T08:01:53;24.5;57.9
78696;SHT31;68030;51.980;5.646;2023-08-20T08:04:21;24.6;57.7
78696;SHT31;68030;51.980;5.646;2023-08-20T08:06:50;24.6;57.9
78696;SHT31;68030;51.980;5.646;2023-08-20T08:09:27;24.7;57.5
78696;SHT31;68030;51.980;5.646;2023-08-20T08:11:56;24.7;55.7
78696;SHT31;68030;51.980;5.646;2023-08-20T08:14:25;24.8;55.7
78696;SHT31;68030;51.980;5.646;2023-08-20T08:16:54;24.9;55.6
78696;SHT31;68030;51.980;5.646;2023-08-20T08:19:23;24.9;56.6
78696;SHT31;68030;51.980;5.646;2023-08-20T08:21:52;24.9;56.3
78696;SHT31;68030;51.980;5.646;2023-08-20T08:24:20;25.0;56.0
78696;SHT31;68030;51.980;5.646;2023-08-20T08:26:51;25.1;55.7
78696;SHT31;68030;51.980;5.646;2023-08-20T08:29:19;25.1;55.1
78696;SHT31;68030;51.980;5.646;2023-08-20T08:31:47;25.2;54.6
78696;SHT31;68030;51.980;5.646;2023-08-20T08:34:16;25.2;54.3
78696;SHT31;68030;51.980;5.646;2023-08-20T08:36:44;25.2;54.0
78696;SHT31;68030;51.980;5.646;2023-08-20T08:39:13;25.3;54.2
78696;SHT31;68030;51.980;5.646;2023-08-20T08:41:41;25.3;54.2
78696;SHT31;68030;51.980;5.646;2023-08-20T08:44:11;25.4;54.3
78696;SHT31;68030;51.980;5.646;2023-08-20T08:46:40;25.4;53.8
78696;SHT31;68030;51.980;5.646;2023-08-20T08:49:09;25.5;54.1
78696;SHT31;68030;51.980;5.646;2023-08-20T08:51:41;25.5;54.3
78696;SHT31;68030;51.980;5.646;2023-08-20T08:54:12;25.6;54.2
78696;SHT31;68030;51.980;5.646;2023-08-20T08:56:42;25.7;52.8
78696;SHT31;68030;51.980;5.646;2023-08-20T08:59:10;25.8;52.9
78696;SHT31;68030;51.980;5.646;2023-08-20T09:01:41;25.9;52.2
78696;SHT31;68030;51.980;5.646;2023-08-20T09:04:10;25.9;52.4
78696;SHT31;68030;51.980;5.646;2023-08-20T09:06:49;26.0;51.3
78696;SHT31;68030;51.980;5.646;2023-08-20T09:09:21;26.1;51.1
78696;SHT31;68030;51.980;5.646;2023-08-20T09:11:49;26.2;50.0
78696;SHT31;68030;51.980;5.646;2023-08-20T09:14:28;26.2;50.1
78696;SHT31;68030;51.980;5.646;2023-08-20T09:16:59;26.3;50.7
78696;SHT31;68030;51.980;5.646;2023-08-20T09:19:35;26.4;50.5
78696;SHT31;68030;51.980;5.646;2023-08-20T09:22:04;26.5;49.8
78696;SHT31;68030;51.980;5.646;2023-08-20T09:24:39;26.5;50.3
78696;SHT31;68030;51.980;5.646;2023-08-20T09:27:11;26.6;47.3
78696;SHT31;68030;51.980;5.646;2023-08-20T09:29:47;26.7;47.2
78696;SHT31;68030;51.980;5.646;2023-08-20T09:32:18;26.8;45.7
78696;SHT31;68030;51.980;5.646;2023-08-20T09:34:47;26.8;45.3
78696;SHT31;68030;51.980;5.646;2023-08-20T09:37:18;26.9;45.0
78696;SHT31;68030;51.980;5.646;2023-08-20T09:39:47;26.9;45.2
78696;SHT31;68030;51.980;5.646;2023-08-20T09:42:17;27.0;44.6
78696;SHT31;68030;51.980;5.646;2023-08-20T09:44:46;27.0;44.6
78696;SHT31;68030;51.980;5.646;2023-08-20T09:47:16;27.1;44.2
78696;SHT31;68030;51.980;5.646;2023-08-20T09:49:47;27.2;45.0
78696;SHT31;68030;51.980;5.646;2023-08-20T09:52:21;27.2;45.3
78696;SHT31;68030;51.980;5.646;2023-08-20T09:55:03;27.3;43.7
78696;SHT31;68030;51.980;5.646;2023-08-20T09:57:36;27.4;43.7
78696;SHT31;68030;51.980;5.646;2023-08-20T10:00:08;27.4;43.3
78696;SHT31;68030;51.980;5.646;2023-08-20T10:02:39;27.4;43.5
78696;SHT31;68030;51.980;5.646;2023-08-20T10:05:10;27.5;44.3
78696;SHT31;68030;51.980;5.646;2023-08-20T10:07:42;27.5;44.4
78696;SHT31;68030;51.980;5.646;2023-08-20T10:10:12;27.5;43.7
78696;SHT31;68030;51.980;5.646;2023-08-20T10:12:41;27.5;43.5
78696;SHT31;68030;51.980;5.646;2023-08-20T10:15:13;27.6;44.0
78696;SHT31;68030;51.980;5.646;2023-08-20T10:17:44;27.6;43.7
78696;SHT31;68030;51.980;5.646;2023-08-20T10:20:15;27.6;44.1
78696;SHT31;68030;51.980;5.646;2023-08-20T10:22:46;27.7;43.3
78696;SHT31;68030;51.980;5.646;2023-08-20T10:25:24;27.7;43.8
78696;SHT31;68030;51.980;5.646;2023-08-20T10:27:54;27.7;43.0
78696;SHT31;68030;51.980;5.646;2023-08-20T10:30:26;27.8;43.4
78696;SHT31;68030;51.980;5.646;2023-08-20T10:32:56;27.8;43.8
78696;SHT31;68030;51.980;5.646;2023-08-20T10:35:29;27.9;43.4
78696;SHT31;68030;51.980;5.646;2023-08-20T10:38:06;27.9;42.3
78696;SHT31;68030;51.980;5.646;2023-08-20T10:40:55;27.9;42.2
78696;SHT31;68030;51.980;5.646;2023-08-20T10:43:34;28.0;41.9
78696;SHT31;68030;51.980;5.646;2023-08-20T10:46:51;28.0;42.4
78696;SHT31;68030;51.980;5.646;2023-08-20T10:49:19;28.0;41.7
78696;SHT31;68030;51.980;5.646;2023-08-20T10:51:50;28.1;42.2
78696;SHT31;68030;51.980;5.646;2023-08-20T10:54:20;28.1;43.1
78696;SHT31;68030;51.980;5.646;2023-08-20T10:56:57;28.2;42.6
78696;SHT31;68030;51.980;5.646;2023-08-20T10:59:28;28.2;42.6
78696;SHT31;68030;51.980;5.646;2023-08-20T11:01:59;28.3;41.6
78696;SHT31;68030;51.980;5.646;2023-08-20T11:04:31;28.3;41.4
78696;SHT31;68030;51.980;5.646;2023-08-20T11:07:01;28.4;41.3
78696;SHT31;68030;51.980;5.646;2023-08-20T11:09:31;28.4;41.3
78696;SHT31;68030;51.980;5.646;2023-08-20T11:12:03;28.5;42.4
78696;SHT31;68030;51.980;5.646;2023-08-20T11:14:32;28.5;42.2
78696;SHT31;68030;51.980;5.646;2023-08-20T11:17:01;28.6;42.3
78696;SHT31;68030;51.980;5.646;2023-08-20T11:19:30;28.7;41.4
78696;SHT31;68030;51.980;5.646;2023-08-20T11:22:01;28.7;41.2
78696;SHT31;68030;51.980;5.646;2023-08-20T11:24:30;28.7;41.5
78696;SHT31;68030;51.980;5.646;2023-08-20T11:26:59;28.8;41.2
78696;SHT31;68030;51.980;5.646;2023-08-20T11:29:28;28.8;40.9
78696;SHT31;68030;51.980;5.646;2023-08-20T11:32:02;28.9;38.8
78696;SHT31;68030;51.980;5.646;2023-08-20T11:34:31;28.9;40.6
78696;SHT31;68030;51.980;5.646;2023-08-20T11:37:00;28.9;36.8
78696;SHT31;68030;51.980;5.646;2023-08-20T11:39:31;28.9;38.2
78696;SHT31;68030;51.980;5.646;2023-08-20T11:41:59;29.0;39.7
78696;SHT31;68030;51.980;5.646;2023-08-20T11:44:28;29.0;40.1
78696;SHT31;68030;51.980;5.646;2023-08-20T11:47:01;29.0;39.7
78696;SHT31;68030;51.980;5.646;2023-08-20T11:49:35;29.0;39.4
78696;SHT31;68030;51.980;5.646;2023-08-20T11:52:07;29.0;38.3
78696;SHT31;68030;51.980;5.646;2023-08-20T11:54:38;29.0;38.1
78696;SHT31;68030;51.980;5.646;2023-08-20T11:57:08;29.0;38.7
78696;SHT31;68030;51.980;5.646;2023-08-20T11:59:36;29.0;38.3
78696;SHT31;68030;51.980;5.646;2023-08-20T12:02:05;29.0;38.1
78696;SHT31;68030;51.980;5.646;2023-08-20T12:04:34;29.0;37.8
78696;SHT31;68030;51.980;5.646;2023-08-20T12:07:05;29.0;38.7
78696;SHT31;68030;51.980;5.646;2023-08-20T12:09:35;29.0;38.8
78696;SHT31;68030;51.980;5.646;2023-08-20T12:12:06;29.0;39.4
78696;SHT31;68030;51.980;5.646;2023-08-20T12:14:35;29.0;38.8
78696;SHT31;68030;51.980;5.646;2023-08-20T12:17:06;29.1;39.0
78696;SHT31;68030;51.980;5.646;2023-08-20T12:19:35;29.1;38.9
78696;SHT31;68030;51.980;5.646;2023-08-20T12:22:04;29.1;38.9
78696;SHT31;68030;51.980;5.646;2023-08-20T12:24:35;29.1;38.9
78696;SHT31;68030;51.980;5.646;2023-08-20T12:27:03;29.1;39.2
78696;SHT31;68030;51.980;5.646;2023-08-20T12:29:32;29.2;38.6
78696;SHT31;68030;51.980;5.646;2023-08-20T12:32:01;29.2;38.0
78696;SHT31;68030;51.980;5.646;2023-08-20T12:34:33;29.2;38.2
78696;SHT31;68030;51.980;5.646;2023-08-20T12:37:02;29.3;38.9
78696;SHT31;68030;51.980;5.646;2023-08-20T12:39:30;29.3;38.4
78696;SHT31;68030;51.980;5.646;2023-08-20T12:42:00;29.3;38.2
78696;SHT31;68030;51.980;5.646;2023-08-20T12:44:29;29.3;38.7
78696;SHT31;68030;51.980;5.646;2023-08-20T12:46:57;29.3;39.5
78696;SHT31;68030;51.980;5.646;2023-08-20T12:49:27;29.3;39.1
78696;SHT31;68030;51.980;5.646;2023-08-20T12:51:56;29.4;38.4
78696;SHT31;68030;51.980;5.646;2023-08-20T12:54:24;29.4;38.2
78696;SHT31;68030;51.980;5.646;2023-08-20T12:56:53;29.4;39.0
78696;SHT31;68030;51.980;5.646;2023-08-20T12:59:21;29.4;38.0
78696;SHT31;68030;51.980;5.646;2023-08-20T13:01:50;29.4;37.0
78696;SHT31;68030;51.980;5.646;2023-08-20T13:04:20;29.4;38.0
78696;SHT31;68030;51.980;5.646;2023-08-20T13:06:49;29.4;38.1
78696;SHT31;68030;51.980;5.646;2023-08-20T13:09:19;29.5;38.9
78696;SHT31;68030;51.980;5.646;2023-08-20T13:11:48;29.5;38.5
78696;SHT31;68030;51.980;5.646;2023-08-20T13:14:18;29.6;38.6
78696;SHT31;68030;51.980;5.646;2023-08-20T13:16:48;29.6;37.6
78696;SHT31;68030;51.980;5.646;2023-08-20T13:19:18;29.6;37.5
78696;SHT31;68030;51.980;5.646;2023-08-20T13:21:46;29.6;37.1
78696;SHT31;68030;51.980;5.646;2023-08-20T13:24:15;29.6;37.3
78696;SHT31;68030;51.980;5.646;2023-08-20T13:26:43;29.6;37.6
78696;SHT31;68030;51.980;5.646;2023-08-20T13:29:13;29.5;37.0
78696;SHT31;68030;51.980;5.646;2023-08-20T13:31:41;29.5;37.6
78696;SHT31;68030;51.980;5.646;2023-08-20T13:34:11;29.5;38.0
78696;SHT31;68030;51.980;5.646;2023-08-20T13:36:41;29.5;38.6
78696;SHT31;68030;51.980;5.646;2023-08-20T13:39:09;29.5;37.7
78696;SHT31;68030;51.980;5.646;2023-08-20T13:41:39;29.5;37.2
78696;SHT31;68030;51.980;5.646;2023-08-20T13:44:09;29.5;37.2
78696;SHT31;68030;51.980;5.646;2023-08-20T13:46:37;29.5;37.6
78696;SHT31;68030;51.980;5.646;2023-08-20T13:49:07;29.5;37.5
78696;SHT31;68030;51.980;5.646;2023-08-20T13:51:36;29.6;38.1
78696;SHT31;68030;51.980;5.646;2023-08-20T13:54:05;29.6;39.2
78696;SHT31;68030;51.980;5.646;2023-08-20T13:56:34;29.7;38.5
78696;SHT31;68030;51.980;5.646;2023-08-20T13:59:03;29.7;37.4
78696;SHT31;68030;51.980;5.646;2023-08-20T14:01:32;29.8;37.8
78696;SHT31;68030;51.980;5.646;2023-08-20T14:04:01;29.8;37.5
78696;SHT31;68030;51.980;5.646;2023-08-20T14:06:30;29.8;37.1
78696;SHT31;68030;51.980;5.646;2023-08-20T14:08:59;29.8;37.5
78696;SHT31;68030;51.980;5.646;2023-08-20T14:11:29;29.8;37.5
78696;SHT31;68030;51.980;5.646;2023-08-20T14:13:58;29.8;37.4
78696;SHT31;68030;51.980;5.646;2023-08-20T14:16:26;29.8;36.9
78696;SHT31;68030;51.980;5.646;2023-08-20T14:18:55;29.8;36.7
78696;SHT31;68030;51.980;5.646;2023-08-20T14:21:23;29.9;37.5
78696;SHT31;68030;51.980;5.646;2023-08-20T14:23:52;29.9;38.3
78696;SHT31;68030;51.980;5.646;2023-08-20T14:26:20;29.9;37.9
78696;SHT31;68030;51.980;5.646;2023-08-20T14:28:49;30.0;37.2
78696;SHT31;68030;51.980;5.646;2023-08-20T14:31:18;30.0;37.5
78696;SHT31;68030;51.980;5.646;2023-08-20T14:33:47;30.1;37.0
78696;SHT31;68030;51.980;5.646;2023-08-20T14:36:16;30.1;37.1
78696;SHT31;68030;51.980;5.646;2023-08-20T14:38:44;30.1;36.6
78696;SHT31;68030;51.980;5.646;2023-08-20T14:41:13;30.2;38.0
78696;SHT31;68030;51.980;5.646;2023-08-20T14:43:42;30.2;38.0
78696;SHT31;68030;51.980;5.646;2023-08-20T14:46:11;30.3;36.6
78696;SHT31;68030;51.980;5.646;2023-08-20T14:48:40;30.3;36.2
78696;SHT31;68030;51.980;5.646;2023-08-20T14:51:09;30.4;36.0
78696;SHT31;68030;51.980;5.646;2023-08-20T14:53:39;30.4;36.7
78696;SHT31;68030;51.980;5.646;2023-08-20T14:56:08;30.4;37.0
78696;SHT31;68030;51.980;5.646;2023-08-20T14:58:36;30.4;37.7
78696;SHT31;68030;51.980;5.646;2023-08-20T15:01:05;30.5;36.3
78696;SHT31;68030;51.980;5.646;2023-08-20T15:03:36;30.5;36.3
78696;SHT31;68030;51.980;5.646;2023-08-20T15:06:05;30.5;36.5
78696;SHT31;68030;51.980;5.646;2023-08-20T15:08:34;30.5;36.2
78696;SHT31;68030;51.980;5.646;2023-08-20T15:11:02;30.5;36.0
78696;SHT31;68030;51.980;5.646;2023-08-20T15:13:31;30.5;36.6
78696;SHT31;68030;51.980;5.646;2023-08-20T15:16:00;30.5;36.8
78696;SHT31;68030;51.980;5.646;2023-08-20T15:18:29;30.6;37.7
78696;SHT31;68030;51.980;5.646;2023-08-20T15:20:58;30.6;37.2
78696;SHT31;68030;51.980;5.646;2023-08-20T15:23:28;30.6;35.9
78696;SHT31;68030;51.980;5.646;2023-08-20T15:25:58;30.6;35.8
78696;SHT31;68030;51.980;5.646;2023-08-20T15:28:26;30.6;36.1
78696;SHT31;68030;51.980;5.646;2023-08-20T15:30:57;30.6;37.0
78696;SHT31;68030;51.980;5.646;2023-08-20T15:33:29;30.6;36.3
78696;SHT31;68030;51.980;5.646;2023-08-20T15:35:59;30.6;36.4
78696;SHT31;68030;51.980;5.646;2023-08-20T15:38:28;30.6;37.3
78696;SHT31;68030;51.980;5.646;2023-08-20T15:40:57;30.6;36.5
78696;SHT31;68030;51.980;5.646;2023-08-20T15:43:26;30.6;36.8
78696;SHT31;68030;51.980;5.646;2023-08-20T15:45:54;30.6;37.6
78696;SHT31;68030;51.980;5.646;2023-08-20T15:48:23;30.6;38.2
78696;SHT31;68030;51.980;5.646;2023-08-20T15:50:52;30.6;37.0
78696;SHT31;68030;51.980;5.646;2023-08-20T15:53:21;30.6;37.2
78696;SHT31;68030;51.980;5.646;2023-08-20T15:55:50;30.5;37.5
78696;SHT31;68030;51.980;5.646;2023-08-20T15:58:20;30.5;38.3
78696;SHT31;68030;51.980;5.646;2023-08-20T16:00:48;30.5;38.3
78696;SHT31;68030;51.980;5.646;2023-08-20T16:03:17;30.5;37.7
78696;SHT31;68030;51.980;5.646;2023-08-20T16:05:45;30.6;38.1
78696;SHT31;68030;51.980;5.646;2023-08-20T16:08:14;30.8;37.8
78696;SHT31;68030;51.980;5.646;2023-08-20T16:10:42;31.0;37.5
78696;SHT31;68030;51.980;5.646;2023-08-20T16:13:11;31.2;37.0
78696;SHT31;68030;51.980;5.646;2023-08-20T16:15:40;31.6;36.7
78696;SHT31;68030;51.980;5.646;2023-08-20T16:18:08;31.9;35.9